Terminal Aerodrome Forecast
Issued by NWS

Home | Current Version | Previous Version | Text Only | Print | Product List | Glossary On
Versions: 1 2 3 4 5 6 7 8 9 10 11 12 13 14 15
000
FTUS44 KLIX 060008 AAA
TAFGPT
TAF AMD
KGPT 060008Z 0600/0624 28011G28KT 2SM +TSRA BR SCT040CB BKN070
      OVC110
     FM060200 19007KT P6SM BKN150
     FM061500 16004KT P6SM SCT250
     FM061800 17008KT P6SM BKN050 PROB30 0620/0623 P6SM TS BKN050CB=

USA.gov is the U.S. government's official web portal to all federal, state and local government web resources and services.